sensor_id;sensor_type;location;lat;lon;timestamp;pressure;altitude;pressure_sealevel;temperature;humidity
74466;BME280;62916;50.044;15.938;2024-03-02T00:00:12;98217.14;;;20.98;52.91
74466;BME280;62916;50.044;15.938;2024-03-02T00:02:43;98215.28;;;20.98;53.02
74466;BME280;62916;50.044;15.938;2024-03-02T00:05:16;98216.71;;;20.97;53.17
74466;BME280;62916;50.044;15.938;2024-03-02T00:07:52;98217.70;;;20.98;53.19
74466;BME280;62916;50.044;15.938;2024-03-02T00:10:27;98218.48;;;20.97;53.19
74466;BME280;62916;50.044;15.938;2024-03-02T00:13:01;98221.48;;;20.95;53.33
74466;BME280;62916;50.044;15.938;2024-03-02T00:15:43;98219.17;;;20.96;53.16
74466;BME280;62916;50.044;15.938;2024-03-02T00:18:20;98215.58;;;20.97;53.20
74466;BME280;62916;50.044;15.938;2024-03-02T00:20:54;98219.44;;;20.96;53.13
74466;BME280;62916;50.044;15.938;2024-03-02T00:23:29;98218.05;;;20.93;53.23
74466;BME280;62916;50.044;15.938;2024-03-02T00:26:01;98219.81;;;20.93;52.94
74466;BME280;62916;50.044;15.938;2024-03-02T00:28:33;98221.23;;;20.93;53.04
74466;BME280;62916;50.044;15.938;2024-03-02T00:31:06;98223.23;;;20.91;53.05
74466;BME280;62916;50.044;15.938;2024-03-02T00:33:39;98224.35;;;20.88;52.92
74466;BME280;62916;50.044;15.938;2024-03-02T00:36:12;98228.13;;;20.86;52.77
74466;BME280;62916;50.044;15.938;2024-03-02T00:38:48;98226.69;;;20.84;53.11
74466;BME280;62916;50.044;15.938;2024-03-02T00:41:23;98227.16;;;20.82;52.99
74466;BME280;62916;50.044;15.938;2024-03-02T00:44:00;98226.77;;;20.80;53.12
74466;BME280;62916;50.044;15.938;2024-03-02T00:46:34;98228.58;;;20.79;53.01
74466;BME280;62916;50.044;15.938;2024-03-02T00:49:11;98230.44;;;20.77;52.74
74466;BME280;62916;50.044;15.938;2024-03-02T00:51:44;98227.23;;;20.75;52.91
74466;BME280;62916;50.044;15.938;2024-03-02T00:54:19;98229.96;;;20.71;52.94
74466;BME280;62916;50.044;15.938;2024-03-02T00:56:50;98229.61;;;20.69;52.92
74466;BME280;62916;50.044;15.938;2024-03-02T00:59:21;98227.55;;;20.65;52.98
74466;BME280;62916;50.044;15.938;2024-03-02T01:01:52;98228.58;;;20.61;53.04
74466;BME280;62916;50.044;15.938;2024-03-02T01:04:24;98226.46;;;20.58;53.08
74466;BME280;62916;50.044;15.938;2024-03-02T01:06:55;98225.05;;;20.57;53.13
74466;BME280;62916;50.044;15.938;2024-03-02T01:09:26;98226.19;;;20.55;53.26
74466;BME280;62916;50.044;15.938;2024-03-02T01:11:56;98225.06;;;20.53;53.18
74466;BME280;62916;50.044;15.938;2024-03-02T01:14:27;98225.91;;;20.50;53.12
74466;BME280;62916;50.044;15.938;2024-03-02T01:16:59;98223.56;;;20.48;53.19
74466;BME280;62916;50.044;15.938;2024-03-02T01:19:33;98224.67;;;20.45;53.23
74466;BME280;62916;50.044;15.938;2024-03-02T01:22:04;98219.14;;;20.41;53.03
74466;BME280;62916;50.044;15.938;2024-03-02T01:24:34;98218.77;;;20.41;53.25
74466;BME280;62916;50.044;15.938;2024-03-02T01:27:06;98218.75;;;20.38;53.24
74466;BME280;62916;50.044;15.938;2024-03-02T01:29:37;98213.67;;;20.36;53.31
74466;BME280;62916;50.044;15.938;2024-03-02T01:32:08;98213.15;;;20.35;53.37
74466;BME280;62916;50.044;15.938;2024-03-02T01:34:39;98211.19;;;20.34;53.47
74466;BME280;62916;50.044;15.938;2024-03-02T01:37:09;98210.55;;;20.33;53.33
74466;BME280;62916;50.044;15.938;2024-03-02T01:39:40;98211.91;;;20.31;53.34
74466;BME280;62916;50.044;15.938;2024-03-02T01:42:11;98206.39;;;20.28;53.57
74466;BME280;62916;50.044;15.938;2024-03-02T01:44:42;98207.46;;;20.26;53.43
74466;BME280;62916;50.044;15.938;2024-03-02T01:47:13;98206.18;;;20.25;53.57
74466;BME280;62916;50.044;15.938;2024-03-02T01:49:44;98209.75;;;20.23;53.63
74466;BME280;62916;50.044;15.938;2024-03-02T01:52:14;98210.45;;;20.20;53.63
74466;BME280;62916;50.044;15.938;2024-03-02T01:54:45;98207.60;;;20.18;53.60
74466;BME280;62916;50.044;15.938;2024-03-02T01:57:16;98207.52;;;20.16;53.86
74466;BME280;62916;50.044;15.938;2024-03-02T01:59:48;98205.19;;;20.14;53.76
74466;BME280;62916;50.044;15.938;2024-03-02T02:02:20;98197.89;;;20.12;53.93
74466;BME280;62916;50.044;15.938;2024-03-02T02:04:51;98202.06;;;20.10;53.81
74466;BME280;62916;50.044;15.938;2024-03-02T02:07:21;98204.25;;;20.09;53.76
74466;BME280;62916;50.044;15.938;2024-03-02T02:09:52;98200.38;;;20.08;53.96
74466;BME280;62916;50.044;15.938;2024-03-02T02:12:23;98198.86;;;20.07;53.89
74466;BME280;62916;50.044;15.938;2024-03-02T02:14:55;98198.38;;;20.05;53.96
74466;BME280;62916;50.044;15.938;2024-03-02T02:17:25;98193.98;;;20.03;53.96
74466;BME280;62916;50.044;15.938;2024-03-02T02:19:56;98194.23;;;20.02;53.98
74466;BME280;62916;50.044;15.938;2024-03-02T02:22:27;98195.73;;;20.01;54.09
74466;BME280;62916;50.044;15.938;2024-03-02T02:24:58;98195.83;;;20.00;54.02
74466;BME280;62916;50.044;15.938;2024-03-02T02:27:29;98197.59;;;19.97;54.05
74466;BME280;62916;50.044;15.938;2024-03-02T02:30:00;98197.03;;;19.96;54.23
74466;BME280;62916;50.044;15.938;2024-03-02T02:32:32;98194.83;;;19.95;54.20
74466;BME280;62916;50.044;15.938;2024-03-02T02:35:03;98192.55;;;19.94;54.34
74466;BME280;62916;50.044;15.938;2024-03-02T02:37:34;98193.55;;;19.93;54.19
74466;BME280;62916;50.044;15.938;2024-03-02T02:40:06;98189.98;;;19.92;54.28
74466;BME280;62916;50.044;15.938;2024-03-02T02:42:38;98189.75;;;19.92;54.38
74466;BME280;62916;50.044;15.938;2024-03-02T02:45:09;98187.46;;;19.92;54.38
74466;BME280;62916;50.044;15.938;2024-03-02T02:47:40;98193.42;;;19.94;54.19
74466;BME280;62916;50.044;15.938;2024-03-02T02:50:12;98192.06;;;19.92;54.38
74466;BME280;62916;50.044;15.938;2024-03-02T02:52:43;98193.36;;;19.90;54.48
74466;BME280;62916;50.044;15.938;2024-03-02T02:55:14;98192.20;;;19.90;54.26
74466;BME280;62916;50.044;15.938;2024-03-02T02:57:45;98190.95;;;19.89;54.34
74466;BME280;62916;50.044;15.938;2024-03-02T03:00:18;98194.19;;;19.87;54.44
74466;BME280;62916;50.044;15.938;2024-03-02T03:02:50;98191.15;;;19.86;54.47
74466;BME280;62916;50.044;15.938;2024-03-02T03:05:21;98187.25;;;19.85;54.44
74466;BME280;62916;50.044;15.938;2024-03-02T03:07:52;98185.55;;;19.84;54.57
74466;BME280;62916;50.044;15.938;2024-03-02T03:10:23;98187.11;;;19.83;54.52
74466;BME280;62916;50.044;15.938;2024-03-02T03:12:56;98183.27;;;19.81;54.65
74466;BME280;62916;50.044;15.938;2024-03-02T03:15:27;98184.60;;;19.81;54.64
74466;BME280;62916;50.044;15.938;2024-03-02T03:17:58;98186.66;;;19.80;54.67
74466;BME280;62916;50.044;15.938;2024-03-02T03:20:28;98191.27;;;19.79;54.75
74466;BME280;62916;50.044;15.938;2024-03-02T03:22:59;98188.95;;;19.77;54.73
74466;BME280;62916;50.044;15.938;2024-03-02T03:25:30;98192.02;;;19.76;54.73
74466;BME280;62916;50.044;15.938;2024-03-02T03:28:01;98194.64;;;19.75;54.73
74466;BME280;62916;50.044;15.938;2024-03-02T03:30:32;98194.30;;;19.74;54.70
74466;BME280;62916;50.044;15.938;2024-03-02T03:33:04;98194.81;;;19.73;54.74
74466;BME280;62916;50.044;15.938;2024-03-02T03:35:36;98197.13;;;19.72;54.87
74466;BME280;62916;50.044;15.938;2024-03-02T03:38:07;98197.11;;;19.71;54.75
74466;BME280;62916;50.044;15.938;2024-03-02T03:40:37;98196.42;;;19.70;54.79
74466;BME280;62916;50.044;15.938;2024-03-02T03:43:08;98197.36;;;19.69;54.84
74466;BME280;62916;50.044;15.938;2024-03-02T03:45:39;98193.02;;;19.67;54.81
74466;BME280;62916;50.044;15.938;2024-03-02T03:48:11;98193.05;;;19.66;54.94
74466;BME280;62916;50.044;15.938;2024-03-02T03:50:42;98193.23;;;19.65;55.01
74466;BME280;62916;50.044;15.938;2024-03-02T03:53:13;98190.73;;;19.64;55.14
74466;BME280;62916;50.044;15.938;2024-03-02T03:55:45;98190.94;;;19.63;55.16
74466;BME280;62916;50.044;15.938;2024-03-02T03:58:18;98185.11;;;19.63;55.02
74466;BME280;62916;50.044;15.938;2024-03-02T04:00:51;98189.25;;;19.63;55.11
74466;BME280;62916;50.044;15.938;2024-03-02T04:03:22;98188.92;;;19.63;55.14
74466;BME280;62916;50.044;15.938;2024-03-02T04:05:53;98190.74;;;19.62;55.07
74466;BME280;62916;50.044;15.938;2024-03-02T04:08:24;98189.65;;;19.62;55.13
74466;BME280;62916;50.044;15.938;2024-03-02T04:10:55;98187.42;;;19.61;55.07
74466;BME280;62916;50.044;15.938;2024-03-02T04:13:25;98188.02;;;19.60;55.16
74466;BME280;62916;50.044;15.938;2024-03-02T04:15:56;98191.14;;;19.59;55.25
74466;BME280;62916;50.044;15.938;2024-03-02T04:18:27;98195.67;;;19.58;55.24
74466;BME280;62916;50.044;15.938;2024-03-02T04:20:58;98198.12;;;19.57;55.27
74466;BME280;62916;50.044;15.938;2024-03-02T04:23:29;98205.57;;;19.57;55.35
74466;BME280;62916;50.044;15.938;2024-03-02T04:26:00;98206.36;;;19.57;55.39
74466;BME280;62916;50.044;15.938;2024-03-02T04:28:31;98208.09;;;19.55;55.40
74466;BME280;62916;50.044;15.938;2024-03-02T04:31:02;98213.30;;;19.55;55.41
74466;BME280;62916;50.044;15.938;2024-03-02T04:33:33;98214.92;;;19.53;55.44
74466;BME280;62916;50.044;15.938;2024-03-02T04:36:05;98220.26;;;19.54;55.47
74466;BME280;62916;50.044;15.938;2024-03-02T04:38:38;98216.68;;;19.53;55.54
74466;BME280;62916;50.044;15.938;2024-03-02T04:41:09;98220.02;;;19.52;55.51
74466;BME280;62916;50.044;15.938;2024-03-02T04:43:39;98223.23;;;19.52;55.51
74466;BME280;62916;50.044;15.938;2024-03-02T04:46:10;98226.24;;;19.51;55.46
74466;BME280;62916;50.044;15.938;2024-03-02T04:48:41;98221.81;;;19.51;55.43
74466;BME280;62916;50.044;15.938;2024-03-02T04:51:12;98227.80;;;19.50;55.45
74466;BME280;62916;50.044;15.938;2024-03-02T04:53:43;98229.34;;;19.49;55.47
74466;BME280;62916;50.044;15.938;2024-03-02T04:56:14;98226.39;;;19.47;55.56
74466;BME280;62916;50.044;15.938;2024-03-02T04:59:09;98223.53;;;19.47;55.56
74466;BME280;62916;50.044;15.938;2024-03-02T05:01:40;98225.29;;;19.47;55.67
74466;BME280;62916;50.044;15.938;2024-03-02T05:04:11;98227.27;;;19.46;55.62
74466;BME280;62916;50.044;15.938;2024-03-02T05:06:42;98231.11;;;19.46;55.56
74466;BME280;62916;50.044;15.938;2024-03-02T05:09:13;98230.42;;;19.45;55.59
74466;BME280;62916;50.044;15.938;2024-03-02T05:11:44;98233.98;;;19.43;55.56
74466;BME280;62916;50.044;15.938;2024-03-02T05:14:29;98233.82;;;19.43;55.62
74466;BME280;62916;50.044;15.938;2024-03-02T05:16:59;98233.06;;;19.42;55.70
74466;BME280;62916;50.044;15.938;2024-03-02T05:19:30;98229.15;;;19.41;55.69
74466;BME280;62916;50.044;15.938;2024-03-02T05:22:01;98233.09;;;19.39;55.68
74466;BME280;62916;50.044;15.938;2024-03-02T05:24:32;98231.73;;;19.40;55.78
74466;BME280;62916;50.044;15.938;2024-03-02T05:27:04;98240.08;;;19.39;55.85
74466;BME280;62916;50.044;15.938;2024-03-02T05:29:35;98240.47;;;19.39;55.81
74466;BME280;62916;50.044;15.938;2024-03-02T05:32:07;98241.82;;;19.39;55.97
74466;BME280;62916;50.044;15.938;2024-03-02T05:34:38;98241.89;;;19.39;56.00
74466;BME280;62916;50.044;15.938;2024-03-02T05:37:09;98245.34;;;19.38;56.04
74466;BME280;62916;50.044;15.938;2024-03-02T05:39:40;98246.05;;;19.39;56.11
74466;BME280;62916;50.044;15.938;2024-03-02T05:42:12;98250.02;;;19.37;55.98
74466;BME280;62916;50.044;15.938;2024-03-02T05:44:44;98258.00;;;19.38;56.23
74466;BME280;62916;50.044;15.938;2024-03-02T05:47:15;98253.16;;;19.38;56.23
74466;BME280;62916;50.044;15.938;2024-03-02T05:49:46;98257.11;;;19.38;56.30
74466;BME280;62916;50.044;15.938;2024-03-02T05:52:17;98257.20;;;19.38;56.41
74466;BME280;62916;50.044;15.938;2024-03-02T05:54:47;98262.02;;;19.38;56.42
74466;BME280;62916;50.044;15.938;2024-03-02T05:57:19;98266.14;;;19.38;56.32
74466;BME280;62916;50.044;15.938;2024-03-02T06:00:04;98270.07;;;19.38;56.43
74466;BME280;62916;50.044;15.938;2024-03-02T06:02:40;98270.36;;;19.39;56.46
74466;BME280;62916;50.044;15.938;2024-03-02T06:05:11;98272.33;;;19.40;56.43
74466;BME280;62916;50.044;15.938;2024-03-02T06:07:42;98274.90;;;19.40;56.36
74466;BME280;62916;50.044;15.938;2024-03-02T06:10:13;98279.66;;;19.39;56.30
74466;BME280;62916;50.044;15.938;2024-03-02T06:12:44;98282.10;;;19.38;56.43
74466;BME280;62916;50.044;15.938;2024-03-02T06:15:15;98283.79;;;19.38;56.40
74466;BME280;62916;50.044;15.938;2024-03-02T06:17:46;98285.65;;;19.38;56.45
74466;BME280;62916;50.044;15.938;2024-03-02T06:20:18;98291.11;;;19.38;56.41
74466;BME280;62916;50.044;15.938;2024-03-02T06:22:49;98287.70;;;19.37;56.31
74466;BME280;62916;50.044;15.938;2024-03-02T06:25:20;98286.15;;;19.37;56.26
74466;BME280;62916;50.044;15.938;2024-03-02T06:27:51;98287.63;;;19.36;56.33
74466;BME280;62916;50.044;15.938;2024-03-02T06:30:22;98288.88;;;19.35;56.32
74466;BME280;62916;50.044;15.938;2024-03-02T06:32:52;98291.58;;;19.34;56.32
74466;BME280;62916;50.044;15.938;2024-03-02T06:35:23;98295.41;;;19.34;56.30
74466;BME280;62916;50.044;15.938;2024-03-02T06:37:54;98290.10;;;19.32;56.28
74466;BME280;62916;50.044;15.938;2024-03-02T06:40:25;98289.23;;;19.32;56.29
74466;BME280;62916;50.044;15.938;2024-03-02T06:42:56;98287.67;;;19.32;56.28
74466;BME280;62916;50.044;15.938;2024-03-02T06:45:27;98283.21;;;19.30;56.27
74466;BME280;62916;50.044;15.938;2024-03-02T06:48:00;98284.80;;;19.30;56.29
74466;BME280;62916;50.044;15.938;2024-03-02T06:50:31;98286.75;;;19.29;56.34
74466;BME280;62916;50.044;15.938;2024-03-02T06:53:01;98283.41;;;19.28;56.37
74466;BME280;62916;50.044;15.938;2024-03-02T06:55:33;98279.92;;;19.28;56.31
74466;BME280;62916;50.044;15.938;2024-03-02T06:58:05;98275.23;;;19.27;56.45
74466;BME280;62916;50.044;15.938;2024-03-02T07:00:36;98276.91;;;19.27;56.44
74466;BME280;62916;50.044;15.938;2024-03-02T07:03:07;98280.10;;;19.26;56.46
74466;BME280;62916;50.044;15.938;2024-03-02T07:05:38;98284.92;;;19.26;56.50
74466;BME280;62916;50.044;15.938;2024-03-02T07:08:09;98290.09;;;19.26;56.49
74466;BME280;62916;50.044;15.938;2024-03-02T07:10:40;98290.92;;;19.27;56.52
74466;BME280;62916;50.044;15.938;2024-03-02T07:13:10;98291.15;;;19.27;56.46
74466;BME280;62916;50.044;15.938;2024-03-02T07:15:42;98290.55;;;19.26;56.52
74466;BME280;62916;50.044;15.938;2024-03-02T07:18:40;98290.22;;;19.24;56.39
74466;BME280;62916;50.044;15.938;2024-03-02T07:21:14;98295.03;;;19.24;56.53
74466;BME280;62916;50.044;15.938;2024-03-02T07:23:45;98300.62;;;19.23;56.60
74466;BME280;62916;50.044;15.938;2024-03-02T07:26:16;98307.96;;;19.22;56.47
74466;BME280;62916;50.044;15.938;2024-03-02T07:28:51;98313.55;;;19.21;56.48
74466;BME280;62916;50.044;15.938;2024-03-02T07:31:22;98317.36;;;19.22;56.55
74466;BME280;62916;50.044;15.938;2024-03-02T07:33:53;98321.37;;;19.22;56.59
74466;BME280;62916;50.044;15.938;2024-03-02T07:36:24;98326.98;;;19.22;56.57
74466;BME280;62916;50.044;15.938;2024-03-02T07:38:55;98327.77;;;19.21;56.63
74466;BME280;62916;50.044;15.938;2024-03-02T07:41:26;98331.45;;;19.21;56.56
74466;BME280;62916;50.044;15.938;2024-03-02T07:43:57;98334.12;;;19.20;56.64
74466;BME280;62916;50.044;15.938;2024-03-02T07:46:27;98337.48;;;19.20;56.67
74466;BME280;62916;50.044;15.938;2024-03-02T07:48:58;98344.48;;;19.20;56.58
74466;BME280;62916;50.044;15.938;2024-03-02T07:51:29;98343.55;;;19.21;56.69
74466;BME280;62916;50.044;15.938;2024-03-02T07:54:00;98348.02;;;19.21;56.57
74466;BME280;62916;50.044;15.938;2024-03-02T07:56:31;98349.21;;;19.23;56.76
74466;BME280;62916;50.044;15.938;2024-03-02T07:59:02;98349.86;;;19.27;56.87
74466;BME280;62916;50.044;15.938;2024-03-02T08:01:34;98352.38;;;19.29;56.78
74466;BME280;62916;50.044;15.938;2024-03-02T08:04:05;98354.20;;;19.32;56.93
74466;BME280;62916;50.044;15.938;2024-03-02T08:06:36;98360.86;;;19.35;56.91
74466;BME280;62916;50.044;15.938;2024-03-02T08:09:07;98360.85;;;19.38;56.76
74466;BME280;62916;50.044;15.938;2024-03-02T08:11:40;98362.63;;;19.40;56.72
74466;BME280;62916;50.044;15.938;2024-03-02T08:14:11;98365.22;;;19.42;56.55
74466;BME280;62916;50.044;15.938;2024-03-02T08:16:42;98368.73;;;19.44;56.56
74466;BME280;62916;50.044;15.938;2024-03-02T08:19:13;98368.80;;;19.45;56.49
74466;BME280;62916;50.044;15.938;2024-03-02T08:21:44;98370.95;;;19.48;56.41
74466;BME280;62916;50.044;15.938;2024-03-02T08:24:15;98367.30;;;19.50;56.25
74466;BME280;62916;50.044;15.938;2024-03-02T08:26:46;98364.83;;;19.52;56.14
74466;BME280;62916;50.044;15.938;2024-03-02T08:29:17;98366.91;;;19.54;56.06
74466;BME280;62916;50.044;15.938;2024-03-02T08:31:48;98367.21;;;19.56;56.01
74466;BME280;62916;50.044;15.938;2024-03-02T08:34:19;98368.44;;;19.58;55.75
74466;BME280;62916;50.044;15.938;2024-03-02T08:36:51;98364.70;;;19.60;55.80
74466;BME280;62916;50.044;15.938;2024-03-02T08:39:22;98367.36;;;19.62;55.58
74466;BME280;62916;50.044;15.938;2024-03-02T08:41:53;98361.83;;;19.62;55.35
74466;BME280;62916;50.044;15.938;2024-03-02T08:44:24;98366.37;;;19.63;55.14
74466;BME280;62916;50.044;15.938;2024-03-02T08:46:57;98368.88;;;19.63;55.07
74466;BME280;62916;50.044;15.938;2024-03-02T08:49:29;98366.10;;;19.64;54.83
74466;BME280;62916;50.044;15.938;2024-03-02T08:52:05;98364.73;;;19.64;54.78
74466;BME280;62916;50.044;15.938;2024-03-02T08:54:37;98366.44;;;19.65;54.73
74466;BME280;62916;50.044;15.938;2024-03-02T08:57:09;98363.52;;;19.66;54.57
74466;BME280;62916;50.044;15.938;2024-03-02T08:59:40;98363.92;;;19.68;54.44
74466;BME280;62916;50.044;15.938;2024-03-02T09:02:12;98364.63;;;19.69;54.41
74466;BME280;62916;50.044;15.938;2024-03-02T09:04:43;98366.12;;;19.70;54.08
74466;BME280;62916;50.044;15.938;2024-03-02T09:07:14;98364.79;;;19.71;54.06
74466;BME280;62916;50.044;15.938;2024-03-02T09:09:46;98362.64;;;19.71;53.89
74466;BME280;62916;50.044;15.938;2024-03-02T09:12:18;98366.05;;;19.72;53.78
74466;BME280;62916;50.044;15.938;2024-03-02T09:14:50;98356.39;;;19.73;53.53
74466;BME280;62916;50.044;15.938;2024-03-02T09:17:22;98356.16;;;19.73;53.23
74466;BME280;62916;50.044;15.938;2024-03-02T09:19:54;98355.88;;;19.75;53.34
74466;BME280;62916;50.044;15.938;2024-03-02T09:22:25;98355.31;;;19.76;53.26
74466;BME280;62916;50.044;15.938;2024-03-02T09:24:57;98356.77;;;19.78;53.01
74466;BME280;62916;50.044;15.938;2024-03-02T09:27:28;98356.70;;;19.79;52.49
74466;BME280;62916;50.044;15.938;2024-03-02T09:29:59;98352.54;;;19.79;52.35
74466;BME280;62916;50.044;15.938;2024-03-02T09:32:30;98354.62;;;19.79;52.24
74466;BME280;62916;50.044;15.938;2024-03-02T09:35:01;98357.56;;;19.78;52.00
74466;BME280;62916;50.044;15.938;2024-03-02T09:37:32;98356.83;;;19.78;51.71
74466;BME280;62916;50.044;15.938;2024-03-02T09:40:05;98357.02;;;19.77;51.87
74466;BME280;62916;50.044;15.938;2024-03-02T09:42:37;98357.95;;;19.78;51.84
74466;BME280;62916;50.044;15.938;2024-03-02T09:45:09;98354.69;;;19.78;51.75
74466;BME280;62916;50.044;15.938;2024-03-02T09:47:40;98353.23;;;19.82;51.48
74466;BME280;62916;50.044;15.938;2024-03-02T09:50:13;98353.77;;;19.84;51.29
74466;BME280;62916;50.044;15.938;2024-03-02T09:52:45;98355.85;;;19.87;51.30
74466;BME280;62916;50.044;15.938;2024-03-02T09:55:19;98351.71;;;19.90;51.20
74466;BME280;62916;50.044;15.938;2024-03-02T09:57:52;98348.70;;;19.92;51.11
74466;BME280;62916;50.044;15.938;2024-03-02T10:00:23;98346.00;;;19.95;50.90
74466;BME280;62916;50.044;15.938;2024-03-02T10:02:54;98344.77;;;19.98;50.85
74466;BME280;62916;50.044;15.938;2024-03-02T10:05:28;98345.23;;;20.01;51.05
74466;BME280;62916;50.044;15.938;2024-03-02T10:08:03;98339.97;;;20.03;50.86
74466;BME280;62916;50.044;15.938;2024-03-02T10:10:38;98343.09;;;20.05;50.67
74466;BME280;62916;50.044;15.938;2024-03-02T10:13:13;98339.84;;;20.08;50.35
74466;BME280;62916;50.044;15.938;2024-03-02T10:15:44;98341.89;;;20.11;50.51
74466;BME280;62916;50.044;15.938;2024-03-02T10:18:27;98345.54;;;20.13;50.27
74466;BME280;62916;50.044;15.938;2024-03-02T10:21:14;98346.24;;;20.15;49.95
74466;BME280;62916;50.044;15.938;2024-03-02T10:23:45;98345.73;;;20.16;49.93
74466;BME280;62916;50.044;15.938;2024-03-02T10:26:19;98343.18;;;20.18;49.93
74466;BME280;62916;50.044;15.938;2024-03-02T10:28:50;98346.36;;;20.21;49.80
74466;BME280;62916;50.044;15.938;2024-03-02T10:31:29;98343.40;;;20.22;49.65
74466;BME280;62916;50.044;15.938;2024-03-02T10:34:01;98341.55;;;20.22;49.45
74466;BME280;62916;50.044;15.938;2024-03-02T10:36:33;98335.69;;;20.22;49.47
74466;BME280;62916;50.044;15.938;2024-03-02T10:39:06;98338.96;;;20.21;49.27
74466;BME280;62916;50.044;15.938;2024-03-02T10:41:38;98341.82;;;20.22;49.26
74466;BME280;62916;50.044;15.938;2024-03-02T10:44:10;98344.41;;;20.23;49.25
74466;BME280;62916;50.044;15.938;2024-03-02T10:46:41;98341.71;;;20.24;49.04
74466;BME280;62916;50.044;15.938;2024-03-02T10:49:14;98337.48;;;20.25;48.90
74466;BME280;62916;50.044;15.938;2024-03-02T10:51:44;98335.64;;;20.25;49.01
74466;BME280;62916;50.044;15.938;2024-03-02T10:54:15;98335.88;;;20.25;49.03
74466;BME280;62916;50.044;15.938;2024-03-02T10:56:48;98333.14;;;20.24;48.76
74466;BME280;62916;50.044;15.938;2024-03-02T10:59:26;98333.39;;;20.25;48.84
74466;BME280;62916;50.044;15.938;2024-03-02T11:01:59;98328.06;;;20.25;48.73
74466;BME280;62916;50.044;15.938;2024-03-02T11:04:36;98327.58;;;20.24;48.78
74466;BME280;62916;50.044;15.938;2024-03-02T11:07:09;98325.83;;;20.25;48.62
74466;BME280;62916;50.044;15.938;2024-03-02T11:09:45;98324.57;;;20.26;48.64
74466;BME280;62916;50.044;15.938;2024-03-02T11:12:25;98325.86;;;20.26;48.64
74466;BME280;62916;50.044;15.938;2024-03-02T11:14:59;98322.02;;;20.26;48.46
74466;BME280;62916;50.044;15.938;2024-03-02T11:17:31;98323.21;;;20.26;48.59
74466;BME280;62916;50.044;15.938;2024-03-02T11:20:02;98320.39;;;20.26;48.33
74466;BME280;62916;50.044;15.938;2024-03-02T11:22:38;98321.25;;;20.26;48.25
74466;BME280;62916;50.044;15.938;2024-03-02T11:25:24;98319.95;;;20.25;48.27
74466;BME280;62916;50.044;15.938;2024-03-02T11:28:03;98317.70;;;20.23;48.24
74466;BME280;62916;50.044;15.938;2024-03-02T11:30:53;98313.63;;;20.22;48.27
74466;BME280;62916;50.044;15.938;2024-03-02T11:33:28;98315.45;;;20.21;48.21
74466;BME280;62916;50.044;15.938;2024-03-02T11:36:00;98319.33;;;20.21;48.27
74466;BME280;62916;50.044;15.938;2024-03-02T11:38:33;98321.45;;;20.22;48.06
74466;BME280;62916;50.044;15.938;2024-03-02T11:41:07;98318.80;;;20.22;48.06
74466;BME280;62916;50.044;15.938;2024-03-02T11:43:43;98316.17;;;20.23;48.13
74466;BME280;62916;50.044;15.938;2024-03-02T11:46:16;98320.26;;;20.24;48.22
74466;BME280;62916;50.044;15.938;2024-03-02T11:48:47;98317.77;;;20.24;48.34
74466;BME280;62916;50.044;15.938;2024-03-02T11:51:18;98323.42;;;20.25;48.09
74466;BME280;62916;50.044;15.938;2024-03-02T11:53:51;98322.87;;;20.26;47.94
74466;BME280;62916;50.044;15.938;2024-03-02T11:56:25;98324.83;;;20.26;48.10
74466;BME280;62916;50.044;15.938;2024-03-02T11:58:56;98329.73;;;20.26;47.99
74466;BME280;62916;50.044;15.938;2024-03-02T12:01:28;98325.66;;;20.27;47.95
74466;BME280;62916;50.044;15.938;2024-03-02T12:04:01;98326.48;;;20.27;47.91
74466;BME280;62916;50.044;15.938;2024-03-02T12:06:33;98327.41;;;20.28;48.15
74466;BME280;62916;50.044;15.938;2024-03-02T12:09:04;98324.06;;;20.29;48.29
74466;BME280;62916;50.044;15.938;2024-03-02T12:11:36;98323.73;;;20.30;48.36
74466;BME280;62916;50.044;15.938;2024-03-02T12:14:12;98324.45;;;20.32;48.27
74466;BME280;62916;50.044;15.938;2024-03-02T12:16:46;98317.99;;;20.33;48.54
74466;BME280;62916;50.044;15.938;2024-03-02T12:19:15;98314.48;;;20.35;48.55
74466;BME280;62916;50.044;15.938;2024-03-02T12:21:47;98315.20;;;20.36;48.70
74466;BME280;62916;50.044;15.938;2024-03-02T12:24:18;98317.45;;;20.37;48.87
74466;BME280;62916;50.044;15.938;2024-03-02T12:26:50;98312.41;;;20.40;48.88
74466;BME280;62916;50.044;15.938;2024-03-02T12:29:22;98314.56;;;20.43;48.85
74466;BME280;62916;50.044;15.938;2024-03-02T12:31:53;98311.83;;;20.45;48.90
74466;BME280;62916;50.044;15.938;2024-03-02T12:34:25;98311.27;;;20.47;48.93
74466;BME280;62916;50.044;15.938;2024-03-02T12:36:57;98307.35;;;20.50;49.07
74466;BME280;62916;50.044;15.938;2024-03-02T12:39:28;98309.54;;;20.52;49.10
74466;BME280;62916;50.044;15.938;2024-03-02T12:42:02;98310.66;;;20.54;48.85
74466;BME280;62916;50.044;15.938;2024-03-02T12:44:33;98309.17;;;20.54;48.81
74466;BME280;62916;50.044;15.938;2024-03-02T12:47:04;98310.55;;;20.55;48.86
74466;BME280;62916;50.044;15.938;2024-03-02T12:49:36;98306.39;;;20.56;48.85
74466;BME280;62916;50.044;15.938;2024-03-02T12:52:07;98304.23;;;20.56;48.93
74466;BME280;62916;50.044;15.938;2024-03-02T12:54:38;98306.02;;;20.57;48.77
74466;BME280;62916;50.044;15.938;2024-03-02T12:57:09;98303.00;;;20.58;48.92
74466;BME280;62916;50.044;15.938;2024-03-02T12:59:46;98302.70;;;20.58;48.92
74466;BME280;62916;50.044;15.938;2024-03-02T13:02:20;98298.06;;;20.57;48.75
74466;BME280;62916;50.044;15.938;2024-03-02T13:04:55;98299.58;;;20.59;48.80
74466;BME280;62916;50.044;15.938;2024-03-02T13:07:27;98297.16;;;20.58;48.98
74466;BME280;62916;50.044;15.938;2024-03-02T13:09:58;98299.85;;;20.59;49.00
74466;BME280;62916;50.044;15.938;2024-03-02T13:12:32;98295.83;;;20.60;48.82
74466;BME280;62916;50.044;15.938;2024-03-02T13:15:05;98296.25;;;20.60;48.80